Terminal Aerodrome Forecast
Issued by NWS

Home | Current Version | Previous Version | Graphics & Text | Print | Product List | Glossary On
Versions: 1 2 3 4 5 6 7 8 9 10 11 12 13 14 15 16 17 18 19 20 21
684
FTUS43 KGRB 212339
TAFAUW
TAF
KAUW 212339Z 2200/2224 15006KT P6SM VCSH SCT020 BKN070
     FM220300 14006KT 5SM BR BKN050
     FM220900 10004KT 2SM BR OVC007
     FM221500 03005KT P6SM BKN010
     FM221800 17005KT P6SM BKN025 OVC050=

USA.gov is the U.S. government's official web portal to all federal, state and local government web resources and services.